createdAt,value
2017-10-04T00:01:06.606Z,11.20
2017-10-04T00:03:34.083Z,11.10
2017-10-04T00:06:02.315Z,11.10
2017-10-04T00:08:29.771Z,11.10
2017-10-04T00:10:57.246Z,11.10
2017-10-04T00:13:24.702Z,11.10
2017-10-04T00:15:52.191Z,11.10
2017-10-04T00:18:20.415Z,11.00
2017-10-04T00:20:47.906Z,11.00
2017-10-04T00:23:15.371Z,11.00
2017-10-04T00:25:42.873Z,11.00
2017-10-04T00:28:10.318Z,11.00
2017-10-04T00:30:37.779Z,11.00
2017-10-04T00:33:05.263Z,11.00
2017-10-04T00:35:32.747Z,11.00
2017-10-04T00:38:00.230Z,11.00
2017-10-04T00:40:28.465Z,10.90
2017-10-04T00:42:55.915Z,10.90
2017-10-04T00:45:23.389Z,10.90
2017-10-04T00:47:50.851Z,10.90
2017-10-04T00:50:18.344Z,10.80
2017-10-04T00:52:45.808Z,10.80
2017-10-04T00:55:13.286Z,10.70
2017-10-04T00:57:40.766Z,10.60
2017-10-04T01:00:08.223Z,10.70
2017-10-04T01:02:35.703Z,10.60
2017-10-04T01:05:03.927Z,10.70
2017-10-04T01:07:31.407Z,10.70
2017-10-04T01:09:58.875Z,10.80
2017-10-04T01:12:26.338Z,10.90
2017-10-04T01:14:53.823Z,10.90
2017-10-04T01:17:21.307Z,10.90
2017-10-04T01:19:48.764Z,10.90
2017-10-04T01:22:16.218Z,10.90
2017-10-04T01:24:43.699Z,10.90
2017-10-04T01:27:11.161Z,10.90
2017-10-04T01:29:38.642Z,10.90
2017-10-04T01:32:06.871Z,10.90
2017-10-04T01:34:34.351Z,10.90
2017-10-04T01:37:02.611Z,10.90
2017-10-04T01:39:30.071Z,10.90
2017-10-04T01:41:57.546Z,10.90
2017-10-04T01:44:25.026Z,10.90
2017-10-04T01:46:53.247Z,10.90
2017-10-04T01:49:20.707Z,10.90
2017-10-04T01:51:48.181Z,10.90
2017-10-04T01:54:15.646Z,10.90
2017-10-04T01:56:43.111Z,10.90
2017-10-04T01:59:11.354Z,10.90
2017-10-04T02:01:38.819Z,10.90
2017-10-04T02:04:06.295Z,10.90
2017-10-04T02:06:33.751Z,10.90
2017-10-04T02:09:01.230Z,10.90
2017-10-04T02:11:29.478Z,10.90
2017-10-04T02:13:56.939Z,10.90
2017-10-04T02:16:24.419Z,10.90
2017-10-04T02:18:52.670Z,10.90
2017-10-04T02:21:20.148Z,10.90
2017-10-04T02:23:48.372Z,10.90
2017-10-04T02:26:15.831Z,10.80
2017-10-04T02:28:43.306Z,10.80
2017-10-04T02:31:10.771Z,10.80
2017-10-04T02:33:39.021Z,10.90
2017-10-04T02:36:06.475Z,11.00
2017-10-04T02:38:33.934Z,11.00
2017-10-04T02:41:01.418Z,11.00
2017-10-04T02:43:28.870Z,11.00
2017-10-04T02:45:57.098Z,11.00
2017-10-04T02:48:24.583Z,11.00
2017-10-04T02:50:52.030Z,11.00
2017-10-04T02:53:19.490Z,10.90
2017-10-04T02:55:46.970Z,10.90
2017-10-04T02:58:14.429Z,10.90
2017-10-04T03:00:41.907Z,11.00
2017-10-04T03:03:10.142Z,10.90
2017-10-04T03:05:38.415Z,10.90
2017-10-04T03:08:05.881Z,10.90
2017-10-04T03:10:33.355Z,10.90
2017-10-04T03:13:01.599Z,10.90
2017-10-04T03:15:29.073Z,10.90
2017-10-04T03:17:57.310Z,10.80
2017-10-04T03:20:24.784Z,10.80
2017-10-04T03:22:52.245Z,10.80
2017-10-04T03:25:19.714Z,10.90
2017-10-04T03:27:47.195Z,10.80
2017-10-04T03:30:15.424Z,10.80
2017-10-04T03:32:42.883Z,10.80
2017-10-04T03:35:10.366Z,10.80
2017-10-04T03:37:37.830Z,10.90
2017-10-04T03:40:06.074Z,10.80
2017-10-04T03:42:33.534Z,10.80
2017-10-04T03:45:01.031Z,10.80
2017-10-04T03:47:29.275Z,10.80
2017-10-04T03:49:56.739Z,10.80
2017-10-04T03:52:25.734Z,10.80
2017-10-04T03:54:53.224Z,10.80
2017-10-04T03:57:20.674Z,10.80
2017-10-04T03:59:48.166Z,10.80
2017-10-04T04:02:15.614Z,10.80
2017-10-04T04:04:43.090Z,10.80
2017-10-04T04:07:10.551Z,10.80
2017-10-04T04:09:38.024Z,10.80
2017-10-04T04:12:07.070Z,10.70
2017-10-04T04:14:34.555Z,10.70
2017-10-04T04:17:02.034Z,10.70
2017-10-04T04:19:29.482Z,10.70
2017-10-04T04:21:57.731Z,10.80
2017-10-04T04:24:25.182Z,10.70
2017-10-04T04:26:52.655Z,10.70
2017-10-04T04:29:20.130Z,10.70
2017-10-04T04:31:47.590Z,10.70
2017-10-04T04:34:15.067Z,10.70
2017-10-04T04:36:43.303Z,10.70
2017-10-04T04:39:10.791Z,10.70
2017-10-04T04:41:38.258Z,10.60
2017-10-04T04:44:06.483Z,10.60
2017-10-04T04:46:33.960Z,10.60
2017-10-04T04:49:01.419Z,10.60
2017-10-04T04:51:28.893Z,10.60
2017-10-04T04:53:57.114Z,10.50
2017-10-04T04:56:24.586Z,10.50
2017-10-04T04:58:52.067Z,10.50
2017-10-04T05:01:19.528Z,10.50
2017-10-04T05:03:46.998Z,10.50
2017-10-04T05:06:15.254Z,10.50
2017-10-04T05:08:42.726Z,10.50
2017-10-04T05:11:10.974Z,10.50
2017-10-04T05:13:38.435Z,10.50
2017-10-04T05:16:05.915Z,10.50
2017-10-04T05:18:34.146Z,10.40
2017-10-04T05:21:01.607Z,10.40
2017-10-04T05:23:29.083Z,10.40
2017-10-04T05:25:57.333Z,10.50
2017-10-04T05:28:24.806Z,10.40
2017-10-04T05:30:52.270Z,10.40
2017-10-04T05:33:19.730Z,10.40
2017-10-04T05:35:47.203Z,10.30
2017-10-04T05:38:15.439Z,10.30
2017-10-04T05:40:44.178Z,10.30
2017-10-04T05:43:11.666Z,10.30
2017-10-04T05:45:39.130Z,10.30
2017-10-04T05:48:06.593Z,10.20
2017-10-04T05:50:34.240Z,10.30
2017-10-04T05:53:01.700Z,10.30
2017-10-04T05:55:29.152Z,10.30
2017-10-04T05:57:56.626Z,10.30
2017-10-04T06:00:24.111Z,10.30
2017-10-04T06:02:51.588Z,10.30
2017-10-04T06:05:19.047Z,10.30
2017-10-04T06:07:46.545Z,10.30
2017-10-04T06:10:13.998Z,10.30
2017-10-04T06:12:41.478Z,10.30
2017-10-04T06:15:08.946Z,10.40
2017-10-04T06:17:36.426Z,10.40
2017-10-04T06:20:04.651Z,10.60
2017-10-04T06:22:32.124Z,10.60
2017-10-04T06:24:59.579Z,10.70
2017-10-04T06:27:27.050Z,10.80
2017-10-04T06:29:55.281Z,10.80
2017-10-04T06:32:22.756Z,10.80
2017-10-04T06:34:50.236Z,10.80
2017-10-04T06:37:17.696Z,10.80
2017-10-04T06:39:45.943Z,10.70
2017-10-04T06:42:13.410Z,10.80
2017-10-04T06:44:40.883Z,10.80
2017-10-04T06:47:08.359Z,10.80
2017-10-04T06:49:35.820Z,10.80
2017-10-04T06:52:03.294Z,10.90
2017-10-04T06:54:30.752Z,10.90
2017-10-04T06:56:58.211Z,10.90
2017-10-04T06:59:25.688Z,11.00
2017-10-04T07:01:53.162Z,11.00
2017-10-04T07:04:20.647Z,11.00
2017-10-04T07:06:48.876Z,11.10
2017-10-04T07:09:16.330Z,11.00
2017-10-04T07:11:43.803Z,11.10
2017-10-04T07:14:11.270Z,11.10
2017-10-04T07:16:38.743Z,11.20
2017-10-04T07:19:06.991Z,11.20
2017-10-04T07:21:34.470Z,11.20
2017-10-04T07:24:02.720Z,11.20
2017-10-04T07:26:30.190Z,11.20
2017-10-04T07:28:57.650Z,11.40
2017-10-04T07:31:25.114Z,11.50
2017-10-04T07:33:53.351Z,11.60
2017-10-04T07:36:20.819Z,11.60
2017-10-04T07:38:48.303Z,11.70
2017-10-04T07:41:16.543Z,11.70
2017-10-04T07:43:44.012Z,11.70
2017-10-04T07:46:11.496Z,11.70
2017-10-04T07:48:39.743Z,11.80
2017-10-04T07:51:07.215Z,11.70
2017-10-04T07:53:34.683Z,11.90
2017-10-04T07:56:02.929Z,12.00
2017-10-04T07:58:30.382Z,12.00
2017-10-04T08:00:57.863Z,12.10
2017-10-04T08:03:26.098Z,12.30
2017-10-04T08:05:53.572Z,12.20
2017-10-04T08:08:21.057Z,12.40
2017-10-04T08:10:49.290Z,12.40
2017-10-04T08:13:16.754Z,12.40
2017-10-04T08:15:44.238Z,12.50
2017-10-04T08:18:11.696Z,12.40
2017-10-04T08:20:39.955Z,12.50
2017-10-04T08:23:07.420Z,12.50
2017-10-04T08:25:34.898Z,12.60
2017-10-04T08:28:03.118Z,12.60
2017-10-04T08:30:30.584Z,12.60
2017-10-04T08:32:58.059Z,12.70
2017-10-04T08:35:25.534Z,12.80
2017-10-04T08:37:53.788Z,12.90
2017-10-04T08:40:21.246Z,12.90
2017-10-04T08:42:48.727Z,13.10
2017-10-04T08:45:16.980Z,13.30
2017-10-04T08:47:57.901Z,13.40
2017-10-04T08:50:25.371Z,13.40
2017-10-04T08:52:52.843Z,13.30
2017-10-04T08:55:20.318Z,13.30
2017-10-04T08:57:47.793Z,13.30
2017-10-04T09:00:16.015Z,13.30
2017-10-04T09:02:43.487Z,13.20
2017-10-04T09:05:22.827Z,13.40
2017-10-04T09:07:50.307Z,13.50
2017-10-04T09:10:17.768Z,13.40
2017-10-04T09:12:46.027Z,13.70
2017-10-04T09:15:13.494Z,13.70
2017-10-04T09:17:40.950Z,13.90
2017-10-04T09:20:09.199Z,13.70
2017-10-04T09:22:36.658Z,13.70
2017-10-04T09:25:04.123Z,13.70
2017-10-04T09:27:31.599Z,13.90
2017-10-04T09:29:59.063Z,13.90
2017-10-04T09:32:27.303Z,14.00
2017-10-04T09:34:54.783Z,14.00
2017-10-04T09:37:22.248Z,13.80
2017-10-04T09:39:50.489Z,14.30
2017-10-04T09:42:17.958Z,14.30
2017-10-04T09:44:45.428Z,14.40
2017-10-04T09:47:12.903Z,14.40
2017-10-04T09:49:41.141Z,14.70
2017-10-04T09:52:08.607Z,14.70
2017-10-04T09:54:36.120Z,14.70
2017-10-04T09:57:03.578Z,14.80
2017-10-04T09:59:31.067Z,14.90
2017-10-04T10:01:58.538Z,15.10
2017-10-04T10:04:26.012Z,15.40
2017-10-04T10:06:54.254Z,14.80
2017-10-04T10:09:21.714Z,14.80
2017-10-04T10:11:49.179Z,14.70
2017-10-04T10:14:16.658Z,15.50
2017-10-04T10:16:44.870Z,16.10
2017-10-04T10:19:12.344Z,16.10
2017-10-04T10:21:39.813Z,16.20
2017-10-04T10:24:07.299Z,16.10
2017-10-04T10:26:35.536Z,15.40
2017-10-04T10:29:02.999Z,15.30
2017-10-04T10:31:30.470Z,15.00
2017-10-04T10:33:57.940Z,14.80
2017-10-04T10:36:26.191Z,14.70
2017-10-04T10:38:53.653Z,14.70
2017-10-04T10:41:21.139Z,14.50
2017-10-04T10:43:49.370Z,14.40
2017-10-04T10:46:16.844Z,14.40
2017-10-04T10:48:44.315Z,14.50
2017-10-04T10:51:12.544Z,14.90
2017-10-04T10:53:40.015Z,14.90
2017-10-04T10:56:07.499Z,15.90
2017-10-04T10:58:35.742Z,15.40
2017-10-04T11:01:03.222Z,15.40
2017-10-04T11:03:30.687Z,15.70
2017-10-04T11:05:58.939Z,16.10
2017-10-04T11:08:26.407Z,16.00
2017-10-04T11:10:53.884Z,16.10
2017-10-04T11:13:22.188Z,15.40
2017-10-04T11:15:49.655Z,15.40
2017-10-04T11:18:17.122Z,15.40
2017-10-04T11:20:44.598Z,15.80
2017-10-04T11:23:12.067Z,15.50
2017-10-04T11:25:39.542Z,15.40
2017-10-04T11:28:07.768Z,15.40
2017-10-04T11:30:35.241Z,15.40
2017-10-04T11:33:02.744Z,15.40
2017-10-04T11:35:30.215Z,15.50
2017-10-04T11:37:57.679Z,16.20
2017-10-04T11:40:25.151Z,16.60
2017-10-04T11:42:52.635Z,16.50
2017-10-04T11:45:20.166Z,16.50
2017-10-04T11:47:47.665Z,16.40
2017-10-04T11:50:16.359Z,17.20
2017-10-04T11:52:44.615Z,16.70
2017-10-04T11:55:13.786Z,16.30
2017-10-04T11:57:41.355Z,16.30
2017-10-04T12:00:09.014Z,16.30
2017-10-04T12:02:36.795Z,16.60
2017-10-04T12:05:04.322Z,16.80
2017-10-04T12:07:31.845Z,16.50
2017-10-04T12:09:59.336Z,15.90
2017-10-04T12:12:26.802Z,16.00
2017-10-04T12:14:54.288Z,16.10
2017-10-04T12:17:22.532Z,16.20
2017-10-04T12:19:50.008Z,16.10
2017-10-04T12:22:17.491Z,16.60
2017-10-04T12:24:45.960Z,16.10
2017-10-04T12:27:13.648Z,16.10
2017-10-04T12:29:41.714Z,15.70
2017-10-04T12:32:09.331Z,15.40
2017-10-04T12:34:36.952Z,15.40
2017-10-04T12:37:04.540Z,15.70
2017-10-04T12:39:32.068Z,15.60
2017-10-04T12:41:59.663Z,15.60
2017-10-04T12:44:28.100Z,15.70
2017-10-04T12:46:55.612Z,15.80
2017-10-04T12:49:23.855Z,15.80
2017-10-04T12:51:51.321Z,15.80
2017-10-04T12:54:18.886Z,15.80
2017-10-04T12:56:46.773Z,15.90
2017-10-04T12:59:15.203Z,15.60
2017-10-04T13:01:42.978Z,15.60
2017-10-04T13:04:10.460Z,15.60
2017-10-04T13:06:38.176Z,15.40
2017-10-04T13:09:05.719Z,15.60
2017-10-04T13:11:33.334Z,15.50
2017-10-04T13:14:00.828Z,15.40
2017-10-04T13:16:29.073Z,15.70
2017-10-04T13:18:56.692Z,15.70
2017-10-04T13:21:24.253Z,15.60
2017-10-04T13:23:51.877Z,15.40
2017-10-04T13:26:20.177Z,15.40
2017-10-04T13:28:47.684Z,15.40
2017-10-04T13:31:15.424Z,15.30
2017-10-04T13:33:42.903Z,15.30
2017-10-04T13:38:44.231Z,15.20
2017-10-04T13:41:11.723Z,15.00
2017-10-04T13:43:39.193Z,15.00
2017-10-04T13:46:07.423Z,14.60
2017-10-04T13:48:35.051Z,14.60
2017-10-04T13:51:03.330Z,14.80
2017-10-04T13:53:30.911Z,14.80
2017-10-04T13:55:58.384Z,14.80
2017-10-04T13:58:25.895Z,14.90
2017-10-04T14:00:53.403Z,14.90
2017-10-04T14:03:20.971Z,15.00
2017-10-04T14:05:48.449Z,15.10
2017-10-04T14:08:15.918Z,15.10
2017-10-04T14:10:44.148Z,14.80
2017-10-04T14:13:11.796Z,14.70
2017-10-04T14:15:39.294Z,14.60
2017-10-04T14:18:06.775Z,14.40
2017-10-04T14:20:34.998Z,14.50
2017-10-04T14:23:02.615Z,14.40
2017-10-04T14:25:30.144Z,14.50
2017-10-04T14:27:57.617Z,14.40
2017-10-04T14:30:26.152Z,14.40
2017-10-04T14:32:53.645Z,14.40
2017-10-04T14:35:21.971Z,14.40
2017-10-04T14:37:49.610Z,14.40
2017-10-04T14:40:17.250Z,14.40
2017-10-04T14:42:45.627Z,14.20
2017-10-04T14:45:13.208Z,14.20
2017-10-04T14:47:40.807Z,14.20
2017-10-04T14:50:09.175Z,14.20
2017-10-04T14:52:36.740Z,14.20
2017-10-04T14:55:04.288Z,14.20
2017-10-04T14:57:31.767Z,14.20
2017-10-04T14:59:59.227Z,14.20
2017-10-04T15:02:26.723Z,14.20
2017-10-04T15:04:54.968Z,14.10
2017-10-04T15:07:22.504Z,14.10
2017-10-04T15:09:49.980Z,14.10
2017-10-04T15:12:17.448Z,14.00
2017-10-04T15:14:45.716Z,14.00
2017-10-04T15:17:13.187Z,14.00
2017-10-04T15:19:41.443Z,14.00
2017-10-04T15:22:09.672Z,14.00
2017-10-04T15:24:37.186Z,14.00
2017-10-04T15:27:04.691Z,14.00
2017-10-04T15:29:32.200Z,14.00
2017-10-04T15:31:59.658Z,14.00
2017-10-04T15:34:27.904Z,14.00
2017-10-04T15:36:55.386Z,14.00
2017-10-04T15:39:23.626Z,14.00
2017-10-04T15:41:51.103Z,14.00
2017-10-04T15:44:18.588Z,13.90
2017-10-04T15:46:46.840Z,13.90
2017-10-04T15:49:14.303Z,13.90
2017-10-04T15:51:41.803Z,13.90
2017-10-04T15:54:09.267Z,13.90
2017-10-04T15:56:36.751Z,13.90
2017-10-04T15:59:04.248Z,13.90
2017-10-04T16:01:32.484Z,13.90
2017-10-04T16:03:59.951Z,13.90
2017-10-04T16:06:27.420Z,13.80
2017-10-04T16:08:54.895Z,13.80
2017-10-04T16:11:23.143Z,13.80
2017-10-04T16:13:50.621Z,13.80
2017-10-04T16:16:18.858Z,13.80
2017-10-04T16:18:46.335Z,13.80
2017-10-04T16:21:13.779Z,13.80
2017-10-04T16:23:41.256Z,13.80
2017-10-04T16:26:09.491Z,13.80
2017-10-04T16:28:36.968Z,13.80
2017-10-04T16:31:04.433Z,13.80
2017-10-04T16:33:31.916Z,13.80
2017-10-04T16:36:00.160Z,13.80
2017-10-04T16:38:27.642Z,13.80
2017-10-04T16:40:55.870Z,13.80
2017-10-04T16:43:23.342Z,13.80
2017-10-04T16:45:50.802Z,13.80
2017-10-04T16:48:18.306Z,13.80
2017-10-04T16:50:45.847Z,13.70
2017-10-04T16:53:13.355Z,13.70
2017-10-04T16:55:40.835Z,13.70
2017-10-04T16:58:09.060Z,13.70
2017-10-04T17:00:36.555Z,13.70
2017-10-04T17:03:04.033Z,13.60
2017-10-04T17:05:31.490Z,13.60
2017-10-04T17:07:59.294Z,13.60
2017-10-04T17:10:26.743Z,13.60
2017-10-04T17:12:54.254Z,13.50
2017-10-04T17:15:21.720Z,13.50
2017-10-04T17:17:49.204Z,13.50
2017-10-04T17:20:16.658Z,13.50
2017-10-04T17:22:44.123Z,13.50
2017-10-04T17:25:11.607Z,13.50
2017-10-04T17:27:39.058Z,13.50
2017-10-04T17:30:06.554Z,13.40
2017-10-04T17:32:34.015Z,13.40
2017-10-04T17:35:02.251Z,13.40
2017-10-04T17:37:29.731Z,13.30
2017-10-04T17:39:57.195Z,13.30
2017-10-04T17:42:24.673Z,13.30
2017-10-04T17:44:52.907Z,13.30
2017-10-04T17:47:20.386Z,13.30
2017-10-04T17:49:47.864Z,13.20
2017-10-04T17:52:16.114Z,13.10
2017-10-04T17:54:43.631Z,13.10
2017-10-04T17:57:11.175Z,13.10
2017-10-04T17:59:38.641Z,13.00
2017-10-04T18:02:06.125Z,13.00
2017-10-04T18:04:33.646Z,13.00
2017-10-04T18:07:01.111Z,13.00
2017-10-04T18:09:28.688Z,13.00
2017-10-04T18:11:56.236Z,13.00
2017-10-04T18:14:23.758Z,13.00
2017-10-04T18:16:52.077Z,13.00
2017-10-04T18:19:19.629Z,12.90
2017-10-04T18:21:47.151Z,12.90
2017-10-04T18:24:15.549Z,13.00
2017-10-04T18:26:43.219Z,12.90
2017-10-04T18:29:11.187Z,12.90
2017-10-04T18:31:38.857Z,12.90
2017-10-04T18:34:06.543Z,12.90
2017-10-04T18:36:34.042Z,12.90
2017-10-04T18:39:02.771Z,13.00
2017-10-04T18:41:31.158Z,13.00
2017-10-04T18:43:58.777Z,12.90
2017-10-04T18:46:26.339Z,13.00
2017-10-04T18:48:53.828Z,13.00
2017-10-04T18:51:21.363Z,13.00
2017-10-04T18:53:48.859Z,13.00
2017-10-04T18:56:16.439Z,13.00
2017-10-04T18:58:43.887Z,13.00
2017-10-04T19:01:11.425Z,13.10
2017-10-04T19:03:38.900Z,13.10
2017-10-04T19:06:06.367Z,13.10
2017-10-04T19:08:33.907Z,13.20
2017-10-04T19:11:01.463Z,13.20
2017-10-04T19:13:28.914Z,13.20
2017-10-04T19:15:56.499Z,13.20
2017-10-04T19:18:24.763Z,13.20
2017-10-04T19:20:52.368Z,13.20
2017-10-04T19:23:19.927Z,13.30
2017-10-04T19:25:47.494Z,13.30
2017-10-04T19:28:14.955Z,13.30
2017-10-04T19:30:42.580Z,13.30
2017-10-04T19:33:10.811Z,13.20
2017-10-04T19:35:38.292Z,13.20
2017-10-04T19:38:05.827Z,13.20
2017-10-04T19:40:33.310Z,13.20
2017-10-04T19:43:00.864Z,13.20
2017-10-04T19:45:28.352Z,13.20
2017-10-04T19:47:56.699Z,13.20
2017-10-04T19:50:24.193Z,13.20
2017-10-04T19:52:51.680Z,13.30
2017-10-04T19:55:19.160Z,13.30
2017-10-04T19:57:46.647Z,13.30
2017-10-04T20:00:14.895Z,13.20
2017-10-04T20:02:42.371Z,13.20
2017-10-04T20:05:09.844Z,13.20
2017-10-04T20:07:37.323Z,13.30
2017-10-04T20:10:04.823Z,13.30
2017-10-04T20:12:32.282Z,13.30
2017-10-04T20:14:59.749Z,13.30
2017-10-04T20:17:27.209Z,13.30
2017-10-04T20:19:55.451Z,13.30
2017-10-04T20:22:22.923Z,13.30
2017-10-04T20:24:50.410Z,13.30
2017-10-04T20:27:17.875Z,13.30
2017-10-04T20:29:45.375Z,13.30
2017-10-04T20:32:12.844Z,13.30
2017-10-04T20:34:40.363Z,13.30
2017-10-04T20:37:07.886Z,13.40
2017-10-04T20:39:36.102Z,13.30
2017-10-04T20:42:03.568Z,13.30
2017-10-04T20:44:31.052Z,13.40
2017-10-04T20:46:58.507Z,13.40
2017-10-04T20:49:25.986Z,13.30
2017-10-04T20:51:54.227Z,13.40
2017-10-04T20:54:21.699Z,13.40
2017-10-04T20:56:49.152Z,13.40
2017-10-04T20:59:16.619Z,13.50
2017-10-04T21:01:44.123Z,13.40
2017-10-04T21:04:11.578Z,13.40
2017-10-04T21:06:39.055Z,13.40
2017-10-04T21:09:06.519Z,13.40
2017-10-04T21:11:33.999Z,13.40
2017-10-04T21:14:01.467Z,13.40
2017-10-04T21:16:28.932Z,13.40
2017-10-04T21:18:57.159Z,13.40
2017-10-04T21:21:24.635Z,13.40
2017-10-04T21:23:52.095Z,13.40
2017-10-04T21:26:19.547Z,13.40
2017-10-04T21:28:48.558Z,13.40
2017-10-04T21:31:16.003Z,13.40
2017-10-04T21:33:43.479Z,13.40
2017-10-04T21:36:11.699Z,13.40
2017-10-04T21:38:39.177Z,13.30
2017-10-04T21:41:06.658Z,13.30
2017-10-04T21:43:34.885Z,13.40
2017-10-04T21:46:02.345Z,13.40
2017-10-04T21:48:29.827Z,13.30
2017-10-04T21:50:57.310Z,13.30
2017-10-04T21:53:25.554Z,13.30
2017-10-04T21:55:52.998Z,13.20
2017-10-04T21:58:20.463Z,13.30
2017-10-04T22:00:47.934Z,13.20
2017-10-04T22:03:15.426Z,13.20
2017-10-04T22:05:42.883Z,13.20
2017-10-04T22:08:10.358Z,13.20
2017-10-04T22:10:37.838Z,13.20
2017-10-04T22:13:05.300Z,13.20
2017-10-04T22:15:32.788Z,13.20
2017-10-04T22:18:01.107Z,13.10
2017-10-04T22:20:28.583Z,13.10
2017-10-04T22:22:56.039Z,13.10
2017-10-04T22:25:23.502Z,13.10
2017-10-04T22:27:50.983Z,13.10
2017-10-04T22:30:18.439Z,13.10
2017-10-04T22:32:45.919Z,13.10
2017-10-04T22:35:13.378Z,13.10
2017-10-04T22:37:40.859Z,13.10
2017-10-04T22:40:08.314Z,13.00
2017-10-04T22:42:35.791Z,12.90
2017-10-04T22:45:03.251Z,12.80
2017-10-04T22:47:30.716Z,12.80
2017-10-04T22:49:58.195Z,12.80
2017-10-04T22:52:26.422Z,12.70
2017-10-04T22:54:53.969Z,12.70
2017-10-04T22:57:21.435Z,12.70
2017-10-04T22:59:48.903Z,12.60
2017-10-04T23:02:16.375Z,12.50
2017-10-04T23:04:43.834Z,12.50
2017-10-04T23:07:11.310Z,12.50
2017-10-04T23:09:39.538Z,12.50
2017-10-04T23:12:07.010Z,12.50
2017-10-04T23:14:34.468Z,12.50
2017-10-04T23:17:01.951Z,12.50
2017-10-04T23:19:29.431Z,12.60
2017-10-04T23:21:56.903Z,12.60
2017-10-04T23:24:24.350Z,12.60
2017-10-04T23:26:51.838Z,12.60
2017-10-04T23:29:19.310Z,12.60
2017-10-04T23:31:46.880Z,12.60
2017-10-04T23:34:15.118Z,12.60
2017-10-04T23:36:42.582Z,12.60
2017-10-04T23:39:10.063Z,12.50
2017-10-04T23:41:37.519Z,12.60
2017-10-04T23:44:04.997Z,12.60
2017-10-04T23:46:33.224Z,12.60
2017-10-04T23:49:00.694Z,12.60
2017-10-04T23:51:28.150Z,12.60
2017-10-04T23:53:55.615Z,12.60
2017-10-04T23:56:23.114Z,12.60
2017-10-04T23:58:50.558Z,12.60
